createdAt,value
2024-04-06T00:00:01.278Z,15.8
2024-04-06T00:01:01.171Z,15.7
2024-04-06T00:02:01.201Z,15.7
2024-04-06T00:03:01.225Z,15.7
2024-04-06T00:04:01.192Z,15.7
2024-04-06T00:06:01.224Z,15.7
2024-04-06T00:07:01.196Z,15.7
2024-04-06T00:08:18.963Z,15.6
2024-04-06T00:10:01.367Z,15.6
2024-04-06T00:12:01.208Z,15.6
2024-04-06T00:13:01.156Z,15.6
2024-04-06T00:14:01.175Z,15.6
2024-04-06T00:15:01.180Z,15.6
2024-04-06T00:16:01.128Z,15.6
2024-04-06T00:17:01.178Z,15.6
2024-04-06T00:18:01.245Z,15.6
2024-04-06T00:19:01.166Z,15.6
2024-04-06T00:20:01.305Z,15.6
2024-04-06T00:21:01.121Z,15.6
2024-04-06T00:22:01.147Z,15.6
2024-04-06T00:23:01.151Z,15.6
2024-04-06T00:24:01.180Z,15.6
2024-04-06T00:25:01.204Z,15.6
2024-04-06T00:26:01.128Z,15.6
2024-04-06T00:27:01.124Z,15.6
2024-04-06T00:28:01.246Z,15.6
2024-04-06T00:29:01.231Z,15.6
2024-04-06T00:30:01.274Z,15.6
2024-04-06T00:31:01.148Z,15.6
2024-04-06T00:32:01.221Z,15.6
2024-04-06T00:33:01.170Z,15.6
2024-04-06T00:34:01.211Z,15.6
2024-04-06T00:35:01.233Z,15.6
2024-04-06T00:36:01.259Z,15.6
2024-04-06T00:37:01.141Z,15.6
2024-04-06T00:38:01.258Z,15.6
2024-04-06T00:39:01.167Z,15.6
2024-04-06T00:40:01.277Z,15.6
2024-04-06T00:41:01.163Z,15.7
2024-04-06T00:42:01.216Z,15.7
2024-04-06T00:43:01.207Z,15.7
2024-04-06T00:44:04.853Z,15.7
2024-04-06T00:46:01.274Z,15.8
2024-04-06T00:47:01.259Z,15.8
2024-04-06T00:48:01.197Z,15.8
2024-04-06T00:49:01.251Z,15.8
2024-04-06T00:50:01.191Z,15.8
2024-04-06T00:51:01.195Z,15.8
2024-04-06T00:52:01.184Z,15.7
2024-04-06T00:53:01.133Z,15.7
2024-04-06T00:54:01.233Z,15.7
2024-04-06T00:55:01.283Z,15.6
2024-04-06T00:56:01.194Z,15.6
2024-04-06T00:57:01.200Z,15.6
2024-04-06T00:58:01.314Z,15.6
2024-04-06T00:59:01.183Z,15.6
2024-04-06T01:00:01.278Z,15.6
2024-04-06T01:01:01.206Z,15.6
2024-04-06T01:02:06.699Z,15.6
2024-04-06T01:04:01.217Z,15.6
2024-04-06T01:05:01.131Z,15.5
2024-04-06T01:06:01.260Z,15.5
2024-04-06T01:07:01.194Z,15.5
2024-04-06T01:08:01.163Z,15.5
2024-04-06T01:09:01.241Z,15.5
2024-04-06T01:10:01.360Z,15.5
2024-04-06T01:11:01.185Z,15.5
2024-04-06T01:12:01.270Z,15.5
2024-04-06T01:13:01.168Z,15.4
2024-04-06T01:14:01.208Z,15.4
2024-04-06T01:15:01.185Z,15.4
2024-04-06T01:16:01.264Z,15.4
2024-04-06T01:17:01.214Z,15.4
2024-04-06T01:18:01.166Z,15.3
2024-04-06T01:19:01.200Z,15.3
2024-04-06T01:20:01.162Z,15.2
2024-04-06T01:21:01.192Z,15.2
2024-04-06T01:22:01.134Z,15.2
2024-04-06T01:23:01.171Z,15.2
2024-04-06T01:24:01.158Z,15.2
2024-04-06T01:25:01.357Z,15.1
2024-04-06T01:27:01.202Z,15.1
2024-04-06T01:28:01.208Z,15.1
2024-04-06T01:29:01.178Z,15
2024-04-06T01:30:01.386Z,15
2024-04-06T01:31:01.131Z,14.9
2024-04-06T01:32:01.259Z,14.9
2024-04-06T01:33:01.158Z,14.9
2024-04-06T01:34:01.201Z,14.9
2024-04-06T01:35:01.221Z,14.8
2024-04-06T01:36:01.171Z,14.8
2024-04-06T01:37:01.353Z,14.8
2024-04-06T01:38:01.207Z,14.8
2024-04-06T01:39:01.261Z,14.7
2024-04-06T01:40:01.262Z,14.7
2024-04-06T01:41:01.147Z,14.6
2024-04-06T01:42:01.493Z,14.6
2024-04-06T01:43:01.101Z,14.6
2024-04-06T01:44:01.201Z,14.6
2024-04-06T01:45:01.342Z,14.6
2024-04-06T01:46:01.128Z,14.6
2024-04-06T01:47:01.220Z,14.6
2024-04-06T01:48:01.152Z,14.6
2024-04-06T01:49:01.222Z,14.6
2024-04-06T01:50:01.153Z,14.5
2024-04-06T01:51:01.178Z,14.5
2024-04-06T01:53:01.150Z,14.4
2024-04-06T01:54:01.142Z,14.4
2024-04-06T01:55:01.171Z,14.4
2024-04-06T01:56:01.165Z,14.4
2024-04-06T01:57:01.343Z,14.3
2024-04-06T01:58:01.121Z,14.3
2024-04-06T01:59:01.221Z,14.3
2024-04-06T02:00:01.334Z,14.2
2024-04-06T02:01:01.302Z,14.2
2024-04-06T02:02:01.192Z,14.2
2024-04-06T02:03:01.409Z,14.2
2024-04-06T02:04:01.124Z,14.2
2024-04-06T02:05:01.156Z,14.2
2024-04-06T02:06:01.211Z,14.2
2024-04-06T02:07:01.179Z,14.2
2024-04-06T02:08:01.131Z,14.2
2024-04-06T02:09:01.245Z,14.2
2024-04-06T02:10:01.138Z,14.3
2024-04-06T02:11:01.180Z,14.3
2024-04-06T02:12:01.149Z,14.3
2024-04-06T02:14:01.180Z,14.3
2024-04-06T02:15:01.319Z,14.4
2024-04-06T02:16:01.202Z,14.3
2024-04-06T02:17:01.142Z,14.3
2024-04-06T02:18:01.182Z,14.4
2024-04-06T02:19:01.148Z,14.4
2024-04-06T02:20:01.198Z,14.3
2024-04-06T02:21:01.178Z,14.3
2024-04-06T02:22:01.228Z,14.3
2024-04-06T02:23:01.174Z,14.3
2024-04-06T02:24:01.291Z,14.3
2024-04-06T02:25:01.194Z,14.3
2024-04-06T02:26:01.214Z,14.3
2024-04-06T02:27:01.171Z,14.3
2024-04-06T02:28:01.123Z,14.3
2024-04-06T02:29:01.212Z,14.3
2024-04-06T02:30:01.130Z,14.3
2024-04-06T02:31:01.135Z,14.3
2024-04-06T02:32:01.239Z,14.3
2024-04-06T02:33:01.190Z,14.4
2024-04-06T02:34:01.175Z,14.4
2024-04-06T02:35:01.206Z,14.4
2024-04-06T02:36:01.213Z,14.4
2024-04-06T02:37:01.175Z,14.4
2024-04-06T02:38:01.206Z,14.4
2024-04-06T02:39:01.138Z,14.4
2024-04-06T02:40:01.201Z,14.4
2024-04-06T02:41:01.143Z,14.4
2024-04-06T02:42:01.257Z,14.4
2024-04-06T02:43:01.186Z,14.4
2024-04-06T02:44:01.132Z,14.4
2024-04-06T02:45:01.279Z,14.4
2024-04-06T02:46:01.140Z,14.4
2024-04-06T02:47:01.198Z,14.3
2024-04-06T02:48:01.149Z,14.3
2024-04-06T02:49:01.299Z,14.3
2024-04-06T02:50:01.190Z,14.3
2024-04-06T02:51:01.216Z,14.3
2024-04-06T02:52:01.166Z,14.3
2024-04-06T02:53:01.184Z,14.3
2024-04-06T02:54:01.281Z,14.3
2024-04-06T02:55:01.179Z,14.3
2024-04-06T02:56:01.139Z,14.3
2024-04-06T02:57:01.217Z,14.3
2024-04-06T02:58:01.145Z,14.4
2024-04-06T02:59:01.177Z,14.4
2024-04-06T03:00:01.214Z,14.4
2024-04-06T03:02:01.223Z,14.4
2024-04-06T03:03:01.224Z,14.4
2024-04-06T03:04:01.239Z,14.4
2024-04-06T03:05:01.179Z,14.4
2024-04-06T03:07:01.186Z,14.4
2024-04-06T03:08:01.215Z,14.4
2024-04-06T03:09:01.185Z,14.4
2024-04-06T03:10:01.177Z,14.4
2024-04-06T03:11:01.180Z,14.4
2024-04-06T03:12:01.141Z,14.4
2024-04-06T03:13:01.235Z,14.4
2024-04-06T03:14:01.281Z,14.4
2024-04-06T03:15:01.184Z,14.4
2024-04-06T03:16:01.152Z,14.4
2024-04-06T03:17:01.180Z,14.3
2024-04-06T03:18:01.200Z,14.3
2024-04-06T03:19:01.124Z,14.3
2024-04-06T03:20:01.269Z,14.4
2024-04-06T03:21:01.156Z,14.4
2024-04-06T03:22:01.225Z,14.4
2024-04-06T03:23:01.187Z,14.4
2024-04-06T03:24:01.212Z,14.4
2024-04-06T03:25:01.157Z,14.4
2024-04-06T03:26:01.129Z,14.4
2024-04-06T03:27:01.270Z,14.4
2024-04-06T03:28:01.434Z,14.4
2024-04-06T03:29:01.184Z,14.4
2024-04-06T03:30:01.299Z,14.4
2024-04-06T03:31:01.146Z,14.4
2024-04-06T03:32:01.353Z,14.4
2024-04-06T03:33:01.192Z,14.4
2024-04-06T03:34:01.223Z,14.3
2024-04-06T03:35:01.269Z,14.3
2024-04-06T03:36:01.152Z,14.2
2024-04-06T03:37:01.181Z,14.2
2024-04-06T03:38:01.183Z,14.2
2024-04-06T03:39:01.230Z,14.1
2024-04-06T03:40:01.415Z,14.1
2024-04-06T03:41:01.075Z,14.1
2024-04-06T03:42:01.248Z,14.1
2024-04-06T03:43:01.119Z,14
2024-04-06T03:44:01.211Z,13.9
2024-04-06T03:45:01.300Z,13.9
2024-04-06T03:46:01.157Z,13.9
2024-04-06T03:47:01.219Z,13.8
2024-04-06T03:48:01.147Z,13.8
2024-04-06T03:49:01.186Z,13.8
2024-04-06T03:50:01.141Z,13.7
2024-04-06T03:51:01.200Z,13.7
2024-04-06T03:52:01.163Z,13.6
2024-04-06T03:53:01.193Z,13.6
2024-04-06T03:54:01.162Z,13.6
2024-04-06T03:55:01.248Z,13.6
2024-04-06T03:56:01.163Z,13.5
2024-04-06T03:57:01.253Z,13.4
2024-04-06T03:58:01.113Z,13.4
2024-04-06T03:59:01.198Z,13.3
2024-04-06T04:00:01.218Z,13.2
2024-04-06T04:01:01.179Z,13.2
2024-04-06T04:02:01.201Z,13.2
2024-04-06T04:03:01.164Z,13.1
2024-04-06T04:04:01.136Z,13.1
2024-04-06T04:05:01.251Z,13.1
2024-04-06T04:06:01.152Z,13
2024-04-06T04:07:01.187Z,13
2024-04-06T04:08:01.137Z,12.9
2024-04-06T04:09:01.179Z,12.9
2024-04-06T04:10:01.156Z,12.9
2024-04-06T04:11:01.470Z,12.9
2024-04-06T04:12:01.129Z,12.8
2024-04-06T04:13:01.167Z,12.8
2024-04-06T04:14:01.157Z,12.8
2024-04-06T04:15:01.200Z,12.8
2024-04-06T04:16:01.276Z,12.8
2024-04-06T04:17:01.177Z,12.8
2024-04-06T04:18:01.155Z,12.8
2024-04-06T04:19:01.202Z,12.8
2024-04-06T04:20:01.204Z,12.8
2024-04-06T04:21:01.142Z,12.8
2024-04-06T04:22:01.194Z,12.8
2024-04-06T04:23:01.157Z,12.8
2024-04-06T04:24:01.211Z,12.8
2024-04-06T04:25:01.197Z,12.8
2024-04-06T04:26:01.275Z,12.8
2024-04-06T04:27:01.155Z,12.8
2024-04-06T04:28:01.231Z,12.8
2024-04-06T04:29:01.202Z,12.8
2024-04-06T04:30:01.131Z,12.8
2024-04-06T04:31:01.183Z,12.7
2024-04-06T04:32:01.195Z,12.7
2024-04-06T04:33:01.140Z,12.6
2024-04-06T04:34:01.166Z,12.6
2024-04-06T04:35:01.157Z,12.6
2024-04-06T04:36:01.159Z,12.6
2024-04-06T04:37:01.180Z,12.5
2024-04-06T04:38:01.136Z,12.5
2024-04-06T04:39:01.205Z,12.4
2024-04-06T04:40:01.292Z,12.4
2024-04-06T04:42:01.261Z,12.4
2024-04-06T04:43:01.165Z,12.3
2024-04-06T04:44:59.644Z,12.3
2024-04-06T04:46:01.231Z,12.2
2024-04-06T04:47:01.175Z,12.2
2024-04-06T04:48:01.217Z,12.2
2024-04-06T04:49:01.215Z,12.1
2024-04-06T04:50:01.216Z,12.1
2024-04-06T04:51:01.295Z,12.1
2024-04-06T04:52:01.218Z,12.1
2024-04-06T04:53:01.175Z,12.1
2024-04-06T04:54:01.231Z,12.1
2024-04-06T04:55:01.214Z,12.1
2024-04-06T04:56:01.215Z,12.1
2024-04-06T04:57:01.289Z,12.1
2024-04-06T04:58:01.207Z,12.1
2024-04-06T05:00:01.267Z,12.2
2024-04-06T05:01:01.140Z,12.2
2024-04-06T05:02:01.266Z,12.2
2024-04-06T05:03:01.129Z,12.3
2024-04-06T05:04:01.180Z,12.4
2024-04-06T05:05:01.207Z,12.4
2024-04-06T05:06:01.164Z,12.5
2024-04-06T05:07:01.235Z,12.6
2024-04-06T05:08:01.183Z,12.6
2024-04-06T05:09:01.273Z,12.6
2024-04-06T05:10:01.207Z,12.6
2024-04-06T05:11:01.160Z,12.7
2024-04-06T05:12:01.241Z,12.8
2024-04-06T05:13:01.934Z,12.8
2024-04-06T05:15:01.269Z,12.8
2024-04-06T05:16:01.194Z,12.9
2024-04-06T05:17:01.225Z,12.9
2024-04-06T05:18:01.257Z,12.9
2024-04-06T05:19:01.179Z,12.9
2024-04-06T05:20:01.305Z,13
2024-04-06T05:21:01.145Z,13
2024-04-06T05:22:01.377Z,13.1
2024-04-06T05:23:01.121Z,13.1
2024-04-06T05:24:01.178Z,13.1
2024-04-06T05:25:01.187Z,13.2
2024-04-06T05:26:01.147Z,13.2
2024-04-06T05:27:01.161Z,13.2
2024-04-06T05:28:01.194Z,13.3
2024-04-06T05:29:01.162Z,13.4
2024-04-06T05:30:01.274Z,13.4
2024-04-06T05:31:01.139Z,13.4
2024-04-06T05:32:01.243Z,13.5
2024-04-06T05:33:01.222Z,13.6
2024-04-06T05:34:01.189Z,13.6
2024-04-06T05:35:01.251Z,13.6
2024-04-06T05:36:03.704Z,13.7
2024-04-06T05:38:01.201Z,13.8
2024-04-06T05:39:01.187Z,13.8
2024-04-06T05:40:01.220Z,13.8
2024-04-06T05:42:01.309Z,13.9
2024-04-06T05:43:01.181Z,13.9
2024-04-06T05:44:08.238Z,13.9
2024-04-06T05:45:01.048Z,14
2024-04-06T05:46:01.349Z,14.1
2024-04-06T05:47:01.166Z,14.1
2024-04-06T05:48:01.188Z,14.2
2024-04-06T05:49:01.271Z,14.2
2024-04-06T05:50:01.211Z,14.3
2024-04-06T05:51:01.295Z,14.4
2024-04-06T05:52:01.151Z,14.5
2024-04-06T05:53:01.186Z,14.6
2024-04-06T05:54:01.141Z,14.8
2024-04-06T05:55:01.220Z,14.9
2024-04-06T05:56:01.200Z,15.1
2024-04-06T05:57:01.208Z,15.2
2024-04-06T05:58:01.176Z,15.7
2024-04-06T05:59:01.201Z,15.8
2024-04-06T06:00:01.165Z,15.9
2024-04-06T06:01:01.251Z,16.1
2024-04-06T06:02:01.240Z,16.2
2024-04-06T06:03:01.150Z,16.5
2024-04-06T06:04:01.177Z,16.6
2024-04-06T06:05:01.196Z,16.6
2024-04-06T06:06:01.236Z,16.7
2024-04-06T06:07:01.151Z,16.8
2024-04-06T06:08:01.127Z,16.9
2024-04-06T06:09:01.181Z,16.9
2024-04-06T06:10:01.166Z,17
2024-04-06T06:11:01.186Z,17
2024-04-06T06:12:01.203Z,17.1
2024-04-06T06:13:01.136Z,17.1
2024-04-06T06:14:01.109Z,17.1
2024-04-06T06:15:01.219Z,17.1
2024-04-06T06:16:01.130Z,17.1
2024-04-06T06:17:01.194Z,17.2
2024-04-06T06:18:01.147Z,17.2
2024-04-06T06:19:01.162Z,17.2
2024-04-06T06:20:01.205Z,17.2
2024-04-06T06:21:01.229Z,17.2
2024-04-06T06:22:01.218Z,17.2
2024-04-06T06:23:01.178Z,17.2
2024-04-06T06:24:01.490Z,17.2
2024-04-06T06:25:01.173Z,17.1
2024-04-06T06:26:01.224Z,17.1
2024-04-06T06:27:01.176Z,17.1
2024-04-06T06:28:01.121Z,17
2024-04-06T06:29:01.207Z,16.9
2024-04-06T06:30:01.167Z,16.9
2024-04-06T06:31:01.295Z,16.8
2024-04-06T06:32:01.203Z,16.8
2024-04-06T06:33:01.248Z,16.8
2024-04-06T06:34:01.132Z,17
2024-04-06T06:35:01.218Z,17.9
2024-04-06T06:38:01.769Z,19.7
2024-04-06T06:41:01.183Z,20.7
2024-04-06T06:42:01.188Z,21
2024-04-06T06:43:01.146Z,21.2
2024-04-06T06:44:01.218Z,21.5
2024-04-06T06:45:01.170Z,21.8
2024-04-06T06:46:01.173Z,22.1
2024-04-06T06:47:01.210Z,22.3
2024-04-06T06:48:01.124Z,22.5
2024-04-06T06:49:01.164Z,22.8
2024-04-06T06:50:01.185Z,23
2024-04-06T06:51:01.201Z,23.2
2024-04-06T06:52:01.204Z,23.6
2024-04-06T06:53:01.182Z,23.8
2024-04-06T06:55:01.197Z,24.3
2024-04-06T06:56:01.137Z,24.6
2024-04-06T06:57:01.315Z,24.8
2024-04-06T06:58:01.156Z,24.9
2024-04-06T06:59:01.229Z,25.1
2024-04-06T07:01:01.241Z,25.4
2024-04-06T07:02:01.204Z,25.7
2024-04-06T07:03:01.156Z,26
2024-04-06T07:04:01.322Z,26.3
2024-04-06T07:05:01.288Z,26.4
2024-04-06T07:06:01.173Z,26.6
2024-04-06T07:08:01.191Z,27.2
2024-04-06T07:09:04.279Z,27.6
2024-04-06T07:11:01.385Z,28.2
2024-04-06T07:12:01.123Z,28.6
2024-04-06T07:13:01.538Z,28.9
2024-04-06T07:14:01.118Z,29.1
2024-04-06T07:15:01.300Z,29.2
2024-04-06T07:16:01.111Z,29.4
2024-04-06T07:17:01.217Z,29.6
2024-04-06T07:18:01.197Z,29.8
2024-04-06T07:19:01.162Z,29.9
2024-04-06T07:20:01.264Z,29.8
2024-04-06T07:21:01.180Z,29.9
2024-04-06T07:22:01.189Z,30.2
2024-04-06T07:23:01.160Z,30.4
2024-04-06T07:24:01.281Z,30.4
2024-04-06T07:25:01.176Z,30.4
2024-04-06T07:26:01.155Z,30.5
2024-04-06T07:27:01.202Z,30.5
2024-04-06T07:28:01.518Z,30.4
2024-04-06T07:30:01.211Z,30.3
2024-04-06T07:31:01.137Z,30.4
2024-04-06T07:32:01.218Z,30.5
2024-04-06T07:33:01.188Z,30.6
2024-04-06T07:34:01.217Z,30.7
2024-04-06T07:35:01.170Z,31
2024-04-06T07:36:01.194Z,31.2
2024-04-06T07:37:01.228Z,31.4
2024-04-06T07:38:01.190Z,31.8
2024-04-06T07:40:01.236Z,31.6
2024-04-06T07:42:01.224Z,31.5
2024-04-06T07:43:01.160Z,31.2
2024-04-06T07:44:01.291Z,31.1
2024-04-06T07:45:01.195Z,31
2024-04-06T07:46:01.119Z,31.2
2024-04-06T07:47:01.713Z,31.5
2024-04-06T07:48:01.135Z,31.8
2024-04-06T07:49:01.191Z,32.2
2024-04-06T07:50:01.148Z,32.2
2024-04-06T07:51:01.205Z,31.9
2024-04-06T07:52:01.217Z,32
2024-04-06T07:53:01.149Z,32.2
2024-04-06T07:54:01.242Z,32.7
2024-04-06T07:55:01.173Z,32.8
2024-04-06T07:56:01.223Z,32.9
2024-04-06T07:57:01.191Z,33.2
2024-04-06T07:58:01.208Z,33.4
2024-04-06T07:59:01.168Z,33.6
2024-04-06T08:00:01.228Z,34
2024-04-06T08:01:01.155Z,34.2
2024-04-06T08:02:01.266Z,34.6
2024-04-06T08:03:01.218Z,34.9
2024-04-06T08:04:01.244Z,34.9
2024-04-06T08:05:01.163Z,34.9
2024-04-06T08:06:01.197Z,34.9
2024-04-06T08:07:07.565Z,35
2024-04-06T08:09:01.174Z,35.4
2024-04-06T08:10:01.150Z,35.4
2024-04-06T08:11:01.213Z,35.7
2024-04-06T08:12:01.169Z,35.8
2024-04-06T08:13:01.177Z,35.9
2024-04-06T08:14:26.213Z,36.2
2024-04-06T08:16:01.213Z,36.4
2024-04-06T08:17:01.180Z,36.6
2024-04-06T08:18:01.178Z,36.9
2024-04-06T08:19:01.200Z,37.1
2024-04-06T08:20:01.415Z,37.2
2024-04-06T08:21:01.185Z,37.4
2024-04-06T08:22:01.267Z,37.8
2024-04-06T08:23:01.171Z,38.2
2024-04-06T08:24:01.237Z,38.7
2024-04-06T08:25:01.233Z,38.4
2024-04-06T08:26:01.110Z,39.1
2024-04-06T08:27:01.300Z,39.6
2024-04-06T08:28:01.202Z,38.9
2024-04-06T08:29:01.171Z,37.6
2024-04-06T08:30:01.296Z,36.6
2024-04-06T08:31:01.211Z,35.7
2024-04-06T08:32:01.346Z,35.1
2024-04-06T08:33:09.509Z,34.6
2024-04-06T08:35:01.297Z,35.4
2024-04-06T08:36:01.171Z,34.7
2024-04-06T08:37:01.218Z,34.1
2024-04-06T08:38:01.145Z,33.6
2024-04-06T08:39:01.212Z,33.3
2024-04-06T08:40:01.215Z,33.1
2024-04-06T08:41:01.137Z,33
2024-04-06T08:42:01.229Z,33
2024-04-06T08:43:01.121Z,33.2
2024-04-06T08:44:01.181Z,33.6
2024-04-06T08:45:01.196Z,33.9
2024-04-06T08:46:01.134Z,34.1
2024-04-06T08:47:01.267Z,34
2024-04-06T08:48:01.150Z,34.1
2024-04-06T08:49:01.192Z,34.1
2024-04-06T08:50:01.183Z,33.8
2024-04-06T08:51:01.134Z,33.6
2024-04-06T08:52:01.255Z,33.4
2024-04-06T08:53:01.215Z,33.2
2024-04-06T08:54:01.243Z,32.9
2024-04-06T08:55:01.212Z,32.7
2024-04-06T08:56:01.152Z,32.4
2024-04-06T08:57:01.289Z,32.2
2024-04-06T08:58:01.198Z,32.1
2024-04-06T08:59:01.240Z,32
2024-04-06T09:00:01.237Z,32.1
2024-04-06T09:01:01.154Z,32.3
2024-04-06T09:02:01.241Z,32.4
2024-04-06T09:03:01.158Z,32.5
2024-04-06T09:04:01.206Z,33
2024-04-06T09:05:01.156Z,33.4
2024-04-06T09:06:01.204Z,34.1
2024-04-06T09:07:01.200Z,34.6
2024-04-06T09:09:01.181Z,34.5
2024-04-06T09:10:01.190Z,34.4
2024-04-06T09:11:01.144Z,34.4
2024-04-06T09:12:01.162Z,35.4
2024-04-06T09:13:01.197Z,35.8
2024-04-06T09:14:01.204Z,36.8
2024-04-06T09:15:01.272Z,37.2
2024-04-06T09:16:01.262Z,37.8
2024-04-06T09:17:01.154Z,38.8
2024-04-06T09:18:01.262Z,39.5
2024-04-06T09:19:01.239Z,40
2024-04-06T09:20:01.170Z,40.4
2024-04-06T09:21:01.130Z,40.7
2024-04-06T09:22:01.214Z,40.7
2024-04-06T09:23:01.148Z,41.2
2024-04-06T09:24:01.119Z,41.6
2024-04-06T09:25:01.194Z,41.8
2024-04-06T09:26:01.264Z,42.1
2024-04-06T09:27:01.265Z,42.5
2024-04-06T09:28:01.207Z,42.6
2024-04-06T09:29:01.219Z,42.6
2024-04-06T09:30:01.177Z,42.9
2024-04-06T09:31:01.204Z,42.8
2024-04-06T09:32:01.136Z,42.1
2024-04-06T09:33:01.180Z,41.7
2024-04-06T09:34:01.322Z,40.9
2024-04-06T09:35:01.220Z,40.1
2024-04-06T09:36:01.272Z,39.4
2024-04-06T09:37:01.658Z,39.1
2024-04-06T09:38:01.119Z,38.8
2024-04-06T09:39:01.231Z,39
2024-04-06T09:40:01.337Z,39.1
2024-04-06T09:42:01.214Z,39.5
2024-04-06T09:43:01.117Z,39.6
2024-04-06T09:44:01.175Z,39.9
2024-04-06T09:45:01.233Z,40.3
2024-04-06T09:46:01.179Z,41
2024-04-06T09:47:01.206Z,41.4
2024-04-06T09:48:01.218Z,41.8
2024-04-06T09:49:01.171Z,42.2
2024-04-06T09:50:01.290Z,42.6
2024-04-06T09:51:01.244Z,43
2024-04-06T09:52:01.148Z,43.3
2024-04-06T09:53:01.186Z,43.6
2024-04-06T09:54:01.229Z,43.9
2024-04-06T09:55:01.175Z,44.1
2024-04-06T09:56:01.258Z,44.4
2024-04-06T09:57:01.145Z,44.6
2024-04-06T09:58:01.184Z,44.9
2024-04-06T09:59:01.116Z,45.2
2024-04-06T10:00:01.427Z,45.4
2024-04-06T10:01:01.139Z,45.4
2024-04-06T10:02:01.172Z,45.4
2024-04-06T10:03:01.185Z,44.6
2024-04-06T10:04:01.131Z,43.8
2024-04-06T10:05:01.296Z,42.6
2024-04-06T10:06:01.183Z,41.3
2024-04-06T10:07:01.175Z,40.1
2024-04-06T10:08:01.142Z,39.3
2024-04-06T10:09:01.202Z,39.5
2024-04-06T10:10:01.341Z,40.4
2024-04-06T10:11:01.103Z,41.2
2024-04-06T10:12:01.185Z,41.7
2024-04-06T10:13:01.162Z,42.1
2024-04-06T10:14:01.186Z,42.1
2024-04-06T10:15:01.188Z,42.1
2024-04-06T10:16:01.220Z,42.5
2024-04-06T10:17:01.141Z,42.8
2024-04-06T10:18:01.272Z,43
2024-04-06T10:19:01.179Z,42.8
2024-04-06T10:20:02.299Z,42.2
2024-04-06T10:22:01.187Z,41.4
2024-04-06T10:23:01.237Z,41.7
2024-04-06T10:24:01.170Z,42
2024-04-06T10:25:01.224Z,42.4
2024-04-06T10:26:02.580Z,43
2024-04-06T10:28:01.168Z,43.6
2024-04-06T10:29:01.161Z,44.1
2024-04-06T10:30:01.356Z,44.3
2024-04-06T10:31:01.158Z,44.7
2024-04-06T10:32:01.209Z,44.8
2024-04-06T10:33:01.306Z,44.6
2024-04-06T10:35:01.342Z,44.9
2024-04-06T10:36:01.087Z,45.2
2024-04-06T10:37:03.087Z,45.6
2024-04-06T10:39:01.194Z,45.9
2024-04-06T10:40:01.360Z,45.9
2024-04-06T10:41:01.171Z,45.9
2024-04-06T10:42:01.283Z,45.8
2024-04-06T10:43:08.305Z,45.7
2024-04-06T10:45:01.291Z,45.8
2024-04-06T10:46:01.196Z,45.8
2024-04-06T10:47:01.441Z,46
2024-04-06T10:48:01.263Z,46.2
2024-04-06T10:49:13.637Z,46.5
2024-04-06T10:51:01.411Z,45.4
2024-04-06T10:52:01.179Z,45.3
2024-04-06T10:53:01.295Z,45.6
2024-04-06T10:54:01.216Z,45.7
2024-04-06T10:56:01.267Z,45.8
2024-04-06T10:57:01.199Z,45.7
2024-04-06T10:58:01.326Z,45.6
2024-04-06T10:59:01.280Z,45.6
2024-04-06T11:00:01.341Z,45.7
2024-04-06T11:01:01.251Z,45.7
2024-04-06T11:02:01.325Z,45.6
2024-04-06T11:03:01.286Z,45.6
2024-04-06T11:04:01.210Z,45.6
2024-04-06T11:05:01.346Z,45.5
2024-04-06T11:06:01.215Z,45.4
2024-04-06T11:07:01.207Z,45.5
2024-04-06T11:08:01.258Z,45.5
2024-04-06T11:09:01.367Z,45.4
2024-04-06T11:10:01.217Z,45.4
2024-04-06T11:11:01.314Z,45.5
2024-04-06T11:12:01.171Z,45.3
2024-04-06T11:13:01.313Z,44.3
2024-04-06T11:14:01.302Z,43.6
2024-04-06T11:15:01.338Z,43.6
2024-04-06T11:16:01.320Z,42.9
2024-04-06T11:18:01.328Z,40.9
2024-04-06T11:19:01.218Z,40.2
2024-04-06T11:20:01.389Z,40.1
2024-04-06T11:21:01.304Z,40.8
2024-04-06T11:22:01.189Z,41.8
2024-04-06T11:23:01.395Z,42.4
2024-04-06T11:24:01.411Z,43.1
2024-04-06T11:25:01.118Z,43.7
2024-04-06T11:26:01.188Z,44.2
2024-04-06T11:27:01.262Z,44.8
2024-04-06T11:28:01.117Z,45.3
2024-04-06T11:29:01.366Z,45.9
2024-04-06T11:30:05.993Z,46.4
2024-04-06T11:32:01.216Z,46.2
2024-04-06T11:33:01.372Z,46
2024-04-06T11:34:01.129Z,45.7
2024-04-06T11:35:01.222Z,44.2
2024-04-06T11:36:01.155Z,42.6
2024-04-06T11:37:01.304Z,41.4
2024-04-06T11:38:01.113Z,40.5
2024-04-06T11:39:01.221Z,39.8
2024-04-06T11:40:01.277Z,39.2
2024-04-06T11:41:01.160Z,39.1
2024-04-06T11:42:01.357Z,38.7
2024-04-06T11:43:01.291Z,38.5
2024-04-06T11:45:01.310Z,38
2024-04-06T11:46:01.209Z,37.7
2024-04-06T11:47:01.418Z,37.4
2024-04-06T11:48:01.112Z,37.3
2024-04-06T11:49:01.234Z,37.8
2024-04-06T11:50:01.153Z,38.2
2024-04-06T11:51:01.206Z,39.4
2024-04-06T11:52:01.278Z,40
2024-04-06T11:53:01.125Z,40.6
2024-04-06T11:54:01.352Z,41.1
2024-04-06T11:55:01.237Z,41.6
2024-04-06T11:56:01.283Z,42.3
2024-04-06T11:57:01.435Z,42.9
2024-04-06T11:58:01.159Z,42.5
2024-04-06T11:59:01.246Z,41.4
2024-04-06T12:00:01.499Z,40.4
2024-04-06T12:01:01.112Z,40.9
2024-04-06T12:02:01.303Z,41.9
2024-04-06T12:03:01.372Z,42.5
2024-04-06T12:04:01.158Z,42.9
2024-04-06T12:05:01.251Z,43.2
2024-04-06T12:06:01.193Z,43.5
2024-04-06T12:07:01.529Z,43.6
2024-04-06T12:09:01.322Z,42.2
2024-04-06T12:10:01.174Z,42
2024-04-06T12:11:01.262Z,41.2
2024-04-06T12:13:01.387Z,42.6
2024-04-06T12:14:01.280Z,42.6
2024-04-06T12:15:01.311Z,42.7
2024-04-06T12:16:01.274Z,41.4
2024-04-06T12:17:01.319Z,39.9
2024-04-06T12:18:01.152Z,38.6
2024-04-06T12:19:01.254Z,37.6
2024-04-06T12:20:01.434Z,36.9
2024-04-06T12:21:01.160Z,36.5
2024-04-06T12:22:01.419Z,36.4
2024-04-06T12:23:01.352Z,36.4
2024-04-06T12:24:01.370Z,36.3
2024-04-06T12:25:01.291Z,36.2
2024-04-06T12:26:01.261Z,36.1
2024-04-06T12:27:01.301Z,35.9
2024-04-06T12:28:01.224Z,35.6
2024-04-06T12:29:01.350Z,35.4
2024-04-06T12:30:01.410Z,35.1
2024-04-06T12:32:01.318Z,34.6
2024-04-06T12:33:01.258Z,34.5
2024-04-06T12:34:01.283Z,34.5
2024-04-06T12:35:01.233Z,34.6
2024-04-06T12:36:01.335Z,35.4
2024-04-06T12:37:01.303Z,36.6
2024-04-06T12:38:01.147Z,38
2024-04-06T12:39:01.351Z,38.2
2024-04-06T12:40:01.316Z,37.6
2024-04-06T12:41:01.222Z,37.4
2024-04-06T12:42:01.244Z,37.4
2024-04-06T12:43:01.279Z,37.9
2024-04-06T12:44:01.199Z,38.5
2024-04-06T12:45:01.317Z,39.4
2024-04-06T12:46:01.327Z,40.4
2024-04-06T12:47:01.351Z,41.4
2024-04-06T12:48:01.206Z,42.4
2024-04-06T12:49:01.290Z,42.9
2024-04-06T12:50:01.270Z,43.3
2024-04-06T12:51:01.220Z,43.6
2024-04-06T12:52:01.225Z,43.9
2024-04-06T12:53:01.163Z,44.2
2024-04-06T12:54:01.165Z,44.3
2024-04-06T12:55:01.349Z,44.3
2024-04-06T12:56:01.263Z,44.3
2024-04-06T12:58:01.267Z,44.2
2024-04-06T12:59:01.206Z,44.2
2024-04-06T13:00:01.402Z,44.2
2024-04-06T13:02:01.342Z,44.2
2024-04-06T13:04:06.977Z,44.1
2024-04-06T13:06:01.238Z,43.6
2024-04-06T13:07:01.305Z,43.5
2024-04-06T13:08:01.173Z,43.5
2024-04-06T13:09:01.290Z,43.5
2024-04-06T13:10:01.262Z,43.5
2024-04-06T13:11:01.243Z,43.4
2024-04-06T13:12:01.318Z,43.3
2024-04-06T13:13:01.245Z,43.2
2024-04-06T13:14:01.287Z,43.2
2024-04-06T13:16:01.283Z,43.2
2024-04-06T13:17:01.205Z,43.3
2024-04-06T13:18:01.170Z,43.3
2024-04-06T13:19:01.255Z,43.2
2024-04-06T13:20:01.195Z,43.2
2024-04-06T13:21:01.290Z,43.1
2024-04-06T13:22:01.395Z,42.9
2024-04-06T13:23:01.269Z,42.6
2024-04-06T13:24:01.252Z,42.2
2024-04-06T13:25:01.238Z,41.9
2024-04-06T13:26:01.244Z,41.7
2024-04-06T13:27:01.304Z,41.6
2024-04-06T13:28:01.180Z,41.4
2024-04-06T13:29:01.137Z,41.4
2024-04-06T13:30:01.391Z,41.7
2024-04-06T13:31:01.190Z,41.4
2024-04-06T13:32:01.518Z,41.1
2024-04-06T13:33:01.116Z,41
2024-04-06T13:34:01.153Z,40.8
2024-04-06T13:35:01.258Z,40.6
2024-04-06T13:36:01.148Z,40.4
2024-04-06T13:37:01.348Z,40.1
2024-04-06T13:38:01.410Z,39.8
2024-04-06T13:39:01.189Z,39.4
2024-04-06T13:40:01.167Z,39
2024-04-06T13:41:01.177Z,38.9
2024-04-06T13:42:01.324Z,39.2
2024-04-06T13:44:01.134Z,39.7
2024-04-06T13:45:01.203Z,39.6
2024-04-06T13:46:01.183Z,39.4
2024-04-06T13:47:01.249Z,39
2024-04-06T13:48:01.288Z,38.4
2024-04-06T13:50:02.361Z,36.8
2024-04-06T13:52:01.384Z,35.3
2024-04-06T13:54:01.182Z,34.3
2024-04-06T13:55:01.312Z,34
2024-04-06T13:56:01.204Z,33.8
2024-04-06T13:57:01.217Z,33.8
2024-04-06T13:58:01.322Z,33.7
2024-04-06T13:59:01.157Z,33.7
2024-04-06T14:00:01.213Z,33.7
2024-04-06T14:01:01.270Z,33.7
2024-04-06T14:02:01.203Z,33.8
2024-04-06T14:03:01.287Z,33.8
2024-04-06T14:04:01.134Z,33.9
2024-04-06T14:05:01.258Z,34
2024-04-06T14:06:01.156Z,34
2024-04-06T14:07:01.234Z,34
2024-04-06T14:08:01.194Z,34.1
2024-04-06T14:10:01.204Z,34
2024-04-06T14:11:01.173Z,34
2024-04-06T14:12:01.188Z,34
2024-04-06T14:13:03.606Z,34
2024-04-06T14:15:01.207Z,34.1
2024-04-06T14:16:01.292Z,34.1
2024-04-06T14:17:01.142Z,34.2